LEXJ/SDR METAR and TAF weather

Enter ICAO airport designator
Station Type Date Time Source
LEXJ METAR 2019/08/25 20:00 UTC NOAA

LEXJ 252000Z 16003KT 130V190 9999 -RA FEW025 20/18 Q1018


Station Type Date Time Source
LEXJ Decoded METAR 2019/08/25 20:00 UTC NOAA

Station name not available
Aug 25, 2019 - 04:00 PM EDT / 2019.08.25 2000 UTC
Wind: from the SSE (160 degrees) at 3 MPH (3 KT) (direction variable):0
Visibility: greater than 7 mile(s):0
Sky conditions: mostly clear
Weather: light rain
Temperature: 68 F (20 C)
Dew Point: 64 F (18 C)
Relative Humidity: 88%
Pressure (altimeter): 30.06 in. Hg (1018 hPa)
ob: LEXJ 252000Z 16003KT 130V190 9999 -RA FEW025 20/18 Q1018
cycle: 20

Station Type Date Time Source
LEXJ TAF 2019/08/25 15:31 UTC NOAA

TAF LEXJ 251400Z 2515/2615 04005KT 9999 BKN020 TX25/2614Z TN18/2606Z PROB30 2515/2521 SHRA TS SCT030TCU SCT040CB PROB40
TEMPO 2518/2609 BKN012

Example: see airport list